createdAt,value
2022-11-14T00:01:46.528Z,5.90
2022-11-14T00:07:07.306Z,5.70
2022-11-14T00:12:28.304Z,5.70
2022-11-14T00:17:49.272Z,5.70
2022-11-14T00:23:10.363Z,5.80
2022-11-14T00:28:31.583Z,5.80
2022-11-14T00:33:52.652Z,5.80
2022-11-14T00:39:14.366Z,5.90
2022-11-14T00:44:35.199Z,5.90
2022-11-14T00:49:56.229Z,6.00
2022-11-14T00:55:17.205Z,6.00
2022-11-14T01:00:38.606Z,6.10
2022-11-14T01:06:05.368Z,6.10
2022-11-14T01:11:26.502Z,6.10
2022-11-14T01:16:47.364Z,6.10
2022-11-14T01:22:08.439Z,6.20
2022-11-14T01:27:31.258Z,6.30
2022-11-14T01:32:52.455Z,6.20
2022-11-14T01:38:15.071Z,6.20
2022-11-14T01:43:40.019Z,6.20
2022-11-14T01:49:13.360Z,6.10
2022-11-14T01:54:38.724Z,6.10
2022-11-14T02:00:05.505Z,6.30
2022-11-14T02:05:27.042Z,6.00
2022-11-14T02:10:47.816Z,6.00
2022-11-14T02:16:08.757Z,6.00
2022-11-14T02:21:29.468Z,6.00
2022-11-14T02:26:50.636Z,6.10
2022-11-14T02:33:08.834Z,6.00
2022-11-14T02:38:21.284Z,6.00
2022-11-14T02:43:42.218Z,6.00
2022-11-14T02:49:03.251Z,5.90
2022-11-14T02:54:24.370Z,6.00
2022-11-14T02:59:44.992Z,6.00
2022-11-14T03:05:06.093Z,5.90
2022-11-14T03:10:27.031Z,5.90
2022-11-14T03:15:48.124Z,5.90
2022-11-14T03:21:15.093Z,5.90
2022-11-14T03:26:35.898Z,5.90
2022-11-14T03:31:56.987Z,5.70
2022-11-14T03:37:17.871Z,5.70
2022-11-14T03:42:38.782Z,5.80
2022-11-14T03:47:59.678Z,5.70
2022-11-14T03:53:20.822Z,5.70
2022-11-14T03:58:41.629Z,5.60
2022-11-14T04:04:04.287Z,5.60
2022-11-14T04:09:25.136Z,5.50
2022-11-14T04:14:46.012Z,5.60
2022-11-14T04:20:07.276Z,5.60
2022-11-14T04:25:28.121Z,5.60
2022-11-14T04:30:49.130Z,5.60
2022-11-14T04:36:10.169Z,5.70
2022-11-14T04:41:31.011Z,5.70
2022-11-14T04:46:52.044Z,5.70
2022-11-14T04:52:12.948Z,5.80
2022-11-14T04:57:33.887Z,5.70
2022-11-14T05:02:54.858Z,6.00
2022-11-14T05:08:15.868Z,5.80
2022-11-14T05:13:36.651Z,5.80
2022-11-14T05:18:57.723Z,5.80
2022-11-14T05:24:19.381Z,5.80
2022-11-14T05:29:40.175Z,6.00
2022-11-14T05:35:01.023Z,5.80
2022-11-14T05:40:22.193Z,5.90
2022-11-14T05:45:43.022Z,5.80
2022-11-14T05:51:05.564Z,5.80
2022-11-14T05:56:26.651Z,5.80
2022-11-14T06:01:47.471Z,5.80
2022-11-14T06:07:08.441Z,5.90
2022-11-14T06:12:29.144Z,5.80
2022-11-14T06:17:52.995Z,5.70
2022-11-14T06:23:14.126Z,5.70
2022-11-14T06:28:34.964Z,5.80
2022-11-14T06:33:56.957Z,5.80
2022-11-14T06:39:17.782Z,5.90
2022-11-14T06:44:38.776Z,5.90
2022-11-14T06:49:59.555Z,5.80
2022-11-14T06:55:25.111Z,5.80
2022-11-14T07:00:46.421Z,5.80
2022-11-14T07:06:08.492Z,5.70
2022-11-14T07:11:30.142Z,5.70
2022-11-14T07:16:50.851Z,5.80
2022-11-14T07:22:11.785Z,5.80
2022-11-14T07:27:32.675Z,5.80
2022-11-14T07:32:57.494Z,5.80
2022-11-14T07:38:18.363Z,5.80
2022-11-14T07:43:41.432Z,5.90
2022-11-14T07:49:01.999Z,5.90
2022-11-14T07:54:22.982Z,5.90
2022-11-14T07:59:43.912Z,5.80
2022-11-14T08:05:05.201Z,6.00
2022-11-14T08:10:28.618Z,6.00
2022-11-14T08:15:53.488Z,6.00
2022-11-14T08:21:14.277Z,6.10
2022-11-14T08:26:35.325Z,6.10
2022-11-14T08:31:59.969Z,6.20
2022-11-14T08:37:21.229Z,6.20
2022-11-14T08:42:42.146Z,6.30
2022-11-14T08:48:03.286Z,6.40
2022-11-14T08:53:24.420Z,6.50
2022-11-14T08:58:45.035Z,6.50
2022-11-14T09:04:05.985Z,6.60
2022-11-14T09:09:27.024Z,6.90
2022-11-14T09:14:48.047Z,6.70
2022-11-14T09:20:09.550Z,6.80
2022-11-14T09:25:31.338Z,6.80
2022-11-14T09:30:51.894Z,7.00
2022-11-14T09:36:15.945Z,7.00
2022-11-14T09:41:55.438Z,7.10
2022-11-14T09:47:22.392Z,7.10
2022-11-14T09:53:03.514Z,7.20
2022-11-14T09:58:24.493Z,7.20
2022-11-14T10:03:54.158Z,7.40
2022-11-14T10:09:48.576Z,7.20
2022-11-14T10:15:33.585Z,7.30
2022-11-14T10:20:58.290Z,7.40
2022-11-14T10:26:30.301Z,7.70
2022-11-14T10:32:00.188Z,7.80
2022-11-14T10:37:38.035Z,8.00
2022-11-14T10:43:24.134Z,8.10
2022-11-14T10:48:48.356Z,8.20
2022-11-14T10:54:30.477Z,8.20
2022-11-14T10:59:52.378Z,8.30
2022-11-14T11:05:18.424Z,8.30
2022-11-14T11:11:03.623Z,8.50
2022-11-14T11:16:26.261Z,8.40
2022-11-14T11:21:49.883Z,8.40
2022-11-14T11:27:20.937Z,8.60
2022-11-14T11:32:41.862Z,8.90
2022-11-14T11:38:05.370Z,9.00
2022-11-14T11:44:03.978Z,9.10
2022-11-14T11:49:54.959Z,8.80
2022-11-14T11:55:30.895Z,8.90
2022-11-14T12:00:55.549Z,9.20
2022-11-14T12:06:25.439Z,9.50
2022-11-14T12:11:54.478Z,9.20
2022-11-14T12:17:42.097Z,9.10
2022-11-14T12:23:36.755Z,9.10
2022-11-14T12:29:25.705Z,9.20
2022-11-14T12:34:47.894Z,9.40
2022-11-14T12:40:23.041Z,9.40
2022-11-14T12:45:43.888Z,9.50
2022-11-14T12:51:25.794Z,9.50
2022-11-14T12:57:00.280Z,9.50
2022-11-14T13:02:33.147Z,9.50
2022-11-14T13:08:12.506Z,9.60
2022-11-14T13:14:11.791Z,9.70
2022-11-14T13:19:51.113Z,9.70
2022-11-14T13:25:11.818Z,9.60
2022-11-14T13:31:10.485Z,9.70
2022-11-14T13:36:57.479Z,9.60
2022-11-14T13:42:21.231Z,9.70
2022-11-14T13:47:58.844Z,9.60
2022-11-14T13:53:26.190Z,9.50
2022-11-14T13:59:25.421Z,9.50
2022-11-14T14:05:04.703Z,9.40
2022-11-14T14:10:41.280Z,9.30
2022-11-14T14:16:13.607Z,9.30
2022-11-14T14:21:57.097Z,9.20
2022-11-14T14:27:23.234Z,9.10
2022-11-14T14:32:44.497Z,8.90
2022-11-14T14:38:11.791Z,8.80
2022-11-14T14:43:34.017Z,8.70
2022-11-14T14:48:55.336Z,8.80
2022-11-14T14:54:24.571Z,8.40
2022-11-14T14:59:45.824Z,8.30
2022-11-14T15:05:07.212Z,8.00
2022-11-14T15:10:30.732Z,7.80
2022-11-14T15:15:52.871Z,7.60
2022-11-14T15:21:27.364Z,7.60
2022-11-14T15:26:50.288Z,7.20
2022-11-14T15:32:23.343Z,7.20
2022-11-14T15:38:22.155Z,7.00
2022-11-14T15:43:44.735Z,6.90
2022-11-14T15:49:14.871Z,7.00
2022-11-14T15:54:37.807Z,6.90
2022-11-14T15:59:58.814Z,6.90
2022-11-14T16:05:25.117Z,6.90
2022-11-14T16:10:45.674Z,6.80
2022-11-14T16:16:06.687Z,6.70
2022-11-14T16:21:27.708Z,6.60
2022-11-14T16:26:49.211Z,6.60
2022-11-14T16:32:11.640Z,6.50
2022-11-14T16:37:32.858Z,6.50
2022-11-14T16:43:03.453Z,6.50
2022-11-14T16:48:24.006Z,6.40
2022-11-14T16:53:45.081Z,6.30
2022-11-14T16:59:06.417Z,6.20
2022-11-14T17:04:27.289Z,6.30
2022-11-14T17:09:48.180Z,6.10
2022-11-14T17:15:09.344Z,6.10
2022-11-14T17:20:30.037Z,6.10
2022-11-14T17:25:50.876Z,6.10
2022-11-14T17:31:12.103Z,6.00
2022-11-14T17:36:33.802Z,6.00
2022-11-14T17:41:54.496Z,5.90
2022-11-14T17:47:15.515Z,5.90
2022-11-14T17:52:36.366Z,5.80
2022-11-14T17:57:57.354Z,5.80
2022-11-14T18:03:18.355Z,5.70
2022-11-14T18:08:39.600Z,5.70
2022-11-14T18:14:00.449Z,5.60
2022-11-14T18:19:21.300Z,5.60
2022-11-14T18:24:47.249Z,5.50
2022-11-14T18:30:39.247Z,5.40
2022-11-14T18:36:00.041Z,5.30
2022-11-14T18:41:22.145Z,5.20
2022-11-14T18:46:42.936Z,5.10
2022-11-14T18:52:10.174Z,5.10
2022-11-14T18:57:34.035Z,5.10
2022-11-14T19:02:54.808Z,5.00
2022-11-14T19:08:18.432Z,5.00
2022-11-14T19:13:39.147Z,5.00
2022-11-14T19:19:00.938Z,4.90
2022-11-14T19:24:21.452Z,4.90
2022-11-14T19:29:42.424Z,4.90
2022-11-14T19:35:03.296Z,4.90
2022-11-14T19:40:24.140Z,4.90
2022-11-14T19:45:45.239Z,4.80
2022-11-14T19:51:09.635Z,4.80
2022-11-14T19:56:30.372Z,4.80
2022-11-14T20:01:55.352Z,4.70
2022-11-14T20:07:16.758Z,4.70
2022-11-14T20:12:37.634Z,4.70
2022-11-14T20:17:58.303Z,4.60
2022-11-14T20:23:19.205Z,4.70
2022-11-14T20:28:42.240Z,4.50
2022-11-14T20:34:03.200Z,4.50
2022-11-14T20:39:23.990Z,4.40
2022-11-14T20:44:45.028Z,4.40
2022-11-14T20:50:06.454Z,4.60
2022-11-14T20:55:27.290Z,4.30
2022-11-14T21:00:52.164Z,4.30
2022-11-14T21:06:14.544Z,4.30
2022-11-14T21:11:35.155Z,4.20
2022-11-14T21:16:56.331Z,4.10
2022-11-14T21:22:17.474Z,4.10
2022-11-14T21:27:38.447Z,4.00
2022-11-14T21:32:59.336Z,4.00
2022-11-14T21:38:20.414Z,4.00
2022-11-14T21:43:42.090Z,3.90
2022-11-14T21:49:03.084Z,3.80
2022-11-14T21:54:23.980Z,3.70
2022-11-14T21:59:44.883Z,3.70
2022-11-14T22:05:06.509Z,3.70
2022-11-14T22:10:27.448Z,3.50
2022-11-14T22:15:48.331Z,3.50
2022-11-14T22:21:09.235Z,3.40
2022-11-14T22:26:30.820Z,3.40
2022-11-14T22:31:53.056Z,3.30
2022-11-14T22:37:13.887Z,3.30
2022-11-14T22:42:34.735Z,4.00
2022-11-14T22:47:59.153Z,3.30
2022-11-14T22:53:20.319Z,3.30
2022-11-14T22:58:42.462Z,3.30
2022-11-14T23:04:05.420Z,3.30
2022-11-14T23:09:27.219Z,3.40
2022-11-14T23:14:48.005Z,3.40
2022-11-14T23:20:15.041Z,3.40
2022-11-14T23:25:37.804Z,3.50
2022-11-14T23:30:59.472Z,3.50
2022-11-14T23:36:21.145Z,3.60
2022-11-14T23:41:41.881Z,3.50
2022-11-14T23:47:02.839Z,3.50
2022-11-14T23:52:23.828Z,3.50
2022-11-14T23:57:44.918Z,3.40
